createdAt,value
2017-08-15T00:02:19.027Z,16.70
2017-08-15T00:04:46.576Z,16.70
2017-08-15T00:07:14.170Z,16.70
2017-08-15T00:09:42.483Z,16.60
2017-08-15T00:12:10.065Z,16.60
2017-08-15T00:14:37.623Z,16.60
2017-08-15T00:17:05.200Z,16.50
2017-08-15T00:19:32.793Z,16.40
2017-08-15T00:22:00.343Z,16.30
2017-08-15T00:24:27.906Z,16.30
2017-08-15T00:26:55.497Z,16.30
2017-08-15T00:29:23.059Z,16.20
2017-08-15T00:31:50.638Z,16.20
2017-08-15T00:34:18.241Z,16.20
2017-08-15T00:36:46.558Z,16.10
2017-08-15T00:39:14.172Z,16.10
2017-08-15T00:41:42.495Z,16.10
2017-08-15T00:44:10.073Z,16.00
2017-08-15T00:46:37.666Z,16.10
2017-08-15T00:49:05.245Z,16.00
2017-08-15T00:51:32.836Z,16.00
2017-08-15T00:54:00.401Z,16.00
2017-08-15T00:56:27.977Z,16.00
2017-08-15T00:58:55.549Z,15.90
2017-08-15T01:01:23.133Z,15.90
2017-08-15T01:03:50.715Z,15.90
2017-08-15T01:06:18.304Z,15.90
2017-08-15T01:08:45.897Z,15.80
2017-08-15T01:11:13.488Z,15.80
2017-08-15T01:13:41.037Z,15.80
2017-08-15T01:16:09.396Z,15.70
2017-08-15T01:18:36.959Z,15.70
2017-08-15T01:21:04.521Z,15.70
2017-08-15T01:23:32.115Z,15.70
2017-08-15T01:25:59.667Z,15.60
2017-08-15T01:28:28.020Z,15.60
2017-08-15T01:30:55.582Z,15.60
2017-08-15T01:33:23.205Z,15.60
2017-08-15T01:35:50.754Z,15.60
2017-08-15T01:38:18.301Z,15.60
2017-08-15T01:40:45.894Z,15.60
2017-08-15T01:43:13.487Z,15.60
2017-08-15T01:45:41.035Z,15.50
2017-08-15T01:48:08.598Z,15.50
2017-08-15T01:50:36.191Z,15.50
2017-08-15T01:53:03.758Z,15.50
2017-08-15T01:55:31.317Z,15.40
2017-08-15T01:57:58.909Z,15.40
2017-08-15T02:00:26.458Z,15.40
2017-08-15T02:02:54.004Z,15.30
2017-08-15T02:05:21.598Z,15.30
2017-08-15T02:07:49.162Z,15.20
2017-08-15T02:10:16.708Z,15.30
2017-08-15T02:12:44.306Z,15.20
2017-08-15T02:15:11.864Z,15.20
2017-08-15T02:17:39.455Z,15.20
2017-08-15T02:20:07.006Z,15.20
2017-08-15T02:22:34.567Z,15.20
2017-08-15T02:25:02.161Z,15.20
2017-08-15T02:27:29.709Z,15.30
2017-08-15T02:29:57.286Z,15.20
2017-08-15T02:32:24.849Z,15.10
2017-08-15T02:34:52.448Z,15.10
2017-08-15T02:37:20.011Z,15.10
2017-08-15T02:39:48.332Z,15.20
2017-08-15T02:42:15.910Z,15.20
2017-08-15T02:44:43.478Z,15.10
2017-08-15T02:47:11.067Z,15.10
2017-08-15T02:49:39.395Z,15.10
2017-08-15T02:52:06.987Z,15.10
2017-08-15T02:54:34.534Z,15.20
2017-08-15T02:57:02.099Z,15.10
2017-08-15T02:59:29.690Z,15.10
2017-08-15T03:01:58.020Z,15.10
2017-08-15T03:04:25.597Z,15.10
2017-08-15T03:06:53.145Z,15.10
2017-08-15T03:09:20.738Z,15.00
2017-08-15T03:11:48.302Z,15.00
2017-08-15T03:14:15.863Z,15.00
2017-08-15T03:16:43.456Z,15.00
2017-08-15T03:19:11.003Z,15.10
2017-08-15T03:21:38.597Z,15.10
2017-08-15T03:24:06.146Z,15.10
2017-08-15T03:26:33.706Z,15.10
2017-08-15T03:29:01.303Z,15.10
2017-08-15T03:31:28.869Z,15.20
2017-08-15T03:33:56.455Z,15.20
2017-08-15T03:36:24.019Z,15.20
2017-08-15T03:38:51.617Z,15.10
2017-08-15T03:41:19.161Z,15.20
2017-08-15T03:43:46.738Z,15.20
2017-08-15T03:46:14.285Z,15.20
2017-08-15T03:48:41.877Z,15.20
2017-08-15T03:51:09.439Z,15.20
2017-08-15T03:53:36.988Z,15.20
2017-08-15T03:56:04.566Z,15.20
2017-08-15T03:58:32.120Z,15.10
2017-08-15T04:00:59.707Z,15.00
2017-08-15T04:03:28.034Z,15.00
2017-08-15T04:05:55.612Z,15.00
2017-08-15T04:08:23.161Z,15.00
2017-08-15T04:10:50.753Z,15.00
2017-08-15T04:13:18.318Z,15.10
2017-08-15T04:15:45.874Z,15.00
2017-08-15T04:18:13.456Z,15.00
2017-08-15T04:20:41.771Z,14.90
2017-08-15T04:23:09.363Z,14.90
2017-08-15T04:25:36.910Z,14.90
2017-08-15T04:28:04.507Z,14.90
2017-08-15T04:30:32.862Z,14.90
2017-08-15T04:33:00.425Z,14.80
2017-08-15T04:35:28.018Z,14.90
2017-08-15T04:37:55.580Z,14.90
2017-08-15T04:40:25.740Z,14.80
2017-08-15T04:42:54.519Z,14.80
2017-08-15T04:45:22.112Z,14.80
2017-08-15T04:47:49.658Z,14.80
2017-08-15T04:50:17.236Z,14.80
2017-08-15T04:52:44.814Z,14.80
2017-08-15T04:55:13.128Z,14.80
2017-08-15T04:57:40.722Z,14.80
2017-08-15T05:00:08.268Z,14.80
2017-08-15T05:02:35.847Z,14.90
2017-08-15T05:05:03.425Z,14.90
2017-08-15T05:07:31.753Z,15.00
2017-08-15T05:09:59.376Z,15.00
2017-08-15T05:12:27.697Z,15.10
2017-08-15T05:14:55.252Z,15.10
2017-08-15T05:17:22.835Z,15.30
2017-08-15T05:19:50.392Z,15.30
2017-08-15T05:22:17.984Z,15.30
2017-08-15T05:24:46.304Z,15.30
2017-08-15T05:27:13.862Z,15.30
2017-08-15T05:29:41.454Z,15.40
2017-08-15T05:32:09.051Z,15.50
2017-08-15T05:34:37.355Z,15.60
2017-08-15T05:37:04.910Z,15.60
2017-08-15T05:39:32.503Z,15.70
2017-08-15T05:42:00.049Z,15.80
2017-08-15T05:44:27.645Z,15.90
2017-08-15T05:46:55.250Z,15.90
2017-08-15T05:49:22.802Z,16.00
2017-08-15T05:51:50.361Z,16.10
2017-08-15T05:54:17.958Z,16.20
2017-08-15T05:56:45.523Z,16.30
2017-08-15T05:59:13.149Z,16.50
2017-08-15T06:01:40.732Z,16.60
2017-08-15T06:04:08.326Z,16.70
2017-08-15T06:06:35.892Z,16.80
2017-08-15T06:09:03.467Z,16.90
2017-08-15T06:11:31.838Z,17.20
2017-08-15T06:14:00.167Z,17.50
2017-08-15T06:16:27.732Z,17.40
2017-08-15T06:18:55.321Z,17.70
2017-08-15T06:21:22.870Z,18.00
2017-08-15T06:23:50.464Z,18.30
2017-08-15T06:26:18.791Z,18.90
2017-08-15T06:28:46.359Z,18.90
2017-08-15T06:31:13.962Z,19.10
2017-08-15T06:33:41.524Z,19.30
2017-08-15T06:36:09.117Z,19.50
2017-08-15T06:38:36.679Z,19.60
2017-08-15T06:41:04.257Z,19.60
2017-08-15T06:43:31.804Z,19.60
2017-08-15T06:45:59.379Z,19.60
2017-08-15T06:48:26.932Z,19.60
2017-08-15T06:50:54.525Z,19.70
2017-08-15T06:53:22.086Z,19.60
2017-08-15T06:55:49.680Z,19.60
2017-08-15T06:58:17.259Z,19.50
2017-08-15T07:00:44.811Z,19.50
2017-08-15T07:03:12.370Z,19.50
2017-08-15T07:05:39.965Z,19.60
2017-08-15T07:08:07.508Z,19.50
2017-08-15T07:10:35.102Z,19.50
2017-08-15T07:13:02.665Z,19.70
2017-08-15T07:15:30.258Z,19.70
2017-08-15T07:17:57.806Z,19.70
2017-08-15T07:20:25.374Z,19.60
2017-08-15T07:22:52.975Z,19.60
2017-08-15T07:25:20.524Z,19.60
2017-08-15T07:27:48.087Z,19.60
2017-08-15T07:30:15.674Z,19.70
2017-08-15T07:32:43.228Z,19.70
2017-08-15T07:35:10.805Z,19.70
2017-08-15T07:37:38.382Z,19.70
2017-08-15T07:40:05.931Z,19.80
2017-08-15T07:42:33.521Z,19.90
2017-08-15T07:45:01.066Z,20.00
2017-08-15T07:47:28.619Z,20.10
2017-08-15T07:49:56.212Z,20.10
2017-08-15T07:52:23.760Z,20.00
2017-08-15T07:54:51.353Z,19.90
2017-08-15T07:57:18.901Z,20.00
2017-08-15T07:59:46.494Z,20.10
2017-08-15T08:02:14.057Z,20.10
2017-08-15T08:04:41.619Z,20.30
2017-08-15T08:07:09.197Z,20.40
2017-08-15T08:09:36.759Z,20.40
2017-08-15T08:12:04.938Z,20.40
2017-08-15T08:14:33.266Z,20.40
2017-08-15T08:17:00.859Z,20.40
2017-08-15T08:19:30.266Z,20.40
2017-08-15T08:21:57.814Z,20.30
2017-08-15T08:24:25.406Z,20.30
2017-08-15T08:26:52.969Z,20.20
2017-08-15T08:29:20.533Z,20.20
2017-08-15T08:31:48.125Z,20.10
2017-08-15T08:34:15.674Z,20.00
2017-08-15T08:36:43.229Z,19.90
2017-08-15T08:39:10.815Z,19.90
2017-08-15T08:41:38.377Z,19.80
2017-08-15T08:44:05.926Z,19.70
2017-08-15T08:46:33.518Z,19.60
2017-08-15T08:49:01.064Z,19.50
2017-08-15T08:51:28.645Z,19.40
2017-08-15T08:53:56.190Z,19.40
2017-08-15T08:56:23.789Z,19.30
2017-08-15T08:58:52.148Z,19.00
2017-08-15T09:01:19.704Z,19.00
2017-08-15T09:03:48.048Z,18.80
2017-08-15T09:06:15.641Z,18.80
2017-08-15T09:08:44.015Z,18.70
2017-08-15T09:11:11.613Z,18.70
2017-08-15T09:13:39.184Z,18.70
2017-08-15T09:16:06.777Z,18.70
2017-08-15T09:18:34.394Z,18.70
2017-08-15T09:21:01.948Z,18.30
2017-08-15T09:23:29.510Z,18.20
2017-08-15T09:25:57.118Z,18.30
2017-08-15T09:28:24.687Z,18.20
2017-08-15T09:30:52.278Z,18.20
2017-08-15T09:33:20.587Z,18.00
2017-08-15T09:35:48.194Z,18.00
2017-08-15T09:38:15.758Z,18.00
2017-08-15T09:40:43.320Z,18.10
2017-08-15T09:43:10.918Z,18.10
2017-08-15T09:45:38.476Z,18.00
2017-08-15T09:48:06.017Z,18.00
2017-08-15T09:50:33.601Z,18.00
2017-08-15T09:53:01.154Z,18.00
2017-08-15T09:55:28.742Z,17.90
2017-08-15T09:57:56.305Z,18.00
2017-08-15T10:00:23.871Z,18.00
2017-08-15T10:02:51.468Z,18.10
2017-08-15T10:05:19.821Z,18.50
2017-08-15T10:07:47.413Z,18.40
2017-08-15T10:10:17.088Z,18.80
2017-08-15T10:12:49.461Z,18.80
2017-08-15T10:15:17.022Z,19.00
2017-08-15T10:17:44.639Z,19.20
2017-08-15T10:20:12.202Z,19.50
2017-08-15T10:22:39.750Z,19.90
2017-08-15T10:25:07.342Z,20.00
2017-08-15T10:27:34.936Z,20.10
2017-08-15T10:30:02.528Z,20.30
2017-08-15T10:32:30.122Z,20.50
2017-08-15T10:34:57.713Z,20.70
2017-08-15T10:37:25.266Z,20.80
2017-08-15T10:39:52.809Z,20.90
2017-08-15T10:42:20.402Z,21.10
2017-08-15T10:44:47.949Z,21.20
2017-08-15T10:47:15.542Z,21.20
2017-08-15T10:49:43.902Z,21.40
2017-08-15T10:52:12.304Z,21.40
2017-08-15T10:54:40.618Z,21.60
2017-08-15T10:57:09.979Z,21.60
2017-08-15T10:59:38.308Z,21.70
2017-08-15T11:02:06.695Z,21.70
2017-08-15T11:04:34.274Z,21.90
2017-08-15T11:07:01.837Z,22.20
2017-08-15T11:09:29.430Z,22.40
2017-08-15T11:11:57.022Z,22.50
2017-08-15T11:14:24.584Z,22.80
2017-08-15T11:16:52.143Z,23.10
2017-08-15T11:19:19.725Z,23.30
2017-08-15T11:21:47.280Z,23.40
2017-08-15T11:24:14.865Z,23.50
2017-08-15T11:26:42.430Z,23.50
2017-08-15T11:29:10.757Z,23.50
2017-08-15T11:31:38.351Z,23.50
2017-08-15T11:34:05.914Z,23.60
2017-08-15T11:36:33.508Z,23.70
2017-08-15T11:39:01.099Z,23.90
2017-08-15T11:41:28.662Z,23.90
2017-08-15T11:43:56.224Z,23.80
2017-08-15T11:46:23.802Z,23.80
2017-08-15T11:48:51.365Z,23.90
2017-08-15T11:51:18.958Z,23.90
2017-08-15T11:53:47.286Z,24.10
2017-08-15T11:56:14.878Z,24.10
2017-08-15T11:58:43.206Z,24.30
2017-08-15T12:01:10.800Z,24.30
2017-08-15T12:03:38.362Z,24.40
2017-08-15T12:06:05.935Z,24.50
2017-08-15T12:08:34.284Z,24.60
2017-08-15T12:11:01.876Z,24.60
2017-08-15T12:13:29.427Z,24.60
2017-08-15T12:15:57.015Z,24.60
2017-08-15T12:18:25.328Z,24.20
2017-08-15T12:20:52.922Z,24.10
2017-08-15T12:23:20.514Z,23.70
2017-08-15T12:25:48.082Z,23.60
2017-08-15T12:28:15.671Z,23.60
2017-08-15T12:30:43.219Z,23.50
2017-08-15T12:33:10.782Z,23.70
2017-08-15T12:35:38.373Z,23.80
2017-08-15T12:38:05.922Z,24.00
2017-08-15T12:40:33.499Z,23.90
2017-08-15T12:43:01.047Z,23.90
2017-08-15T12:45:28.645Z,23.90
2017-08-15T12:47:56.968Z,23.90
2017-08-15T12:50:24.546Z,24.00
2017-08-15T12:52:52.138Z,24.00
2017-08-15T12:55:19.687Z,24.10
2017-08-15T12:57:47.250Z,24.00
2017-08-15T13:00:14.845Z,24.20
2017-08-15T13:02:42.404Z,24.10
2017-08-15T13:05:10.023Z,24.10
2017-08-15T13:07:37.580Z,24.00
2017-08-15T13:10:05.169Z,24.10
2017-08-15T13:12:33.497Z,24.10
2017-08-15T13:15:01.090Z,24.10
2017-08-15T13:17:28.647Z,24.20
2017-08-15T13:19:56.252Z,24.10
2017-08-15T13:22:23.814Z,24.10
2017-08-15T13:24:51.395Z,24.10
2017-08-15T13:27:19.008Z,24.00
2017-08-15T13:29:47.337Z,23.80
2017-08-15T13:32:14.902Z,23.80
2017-08-15T13:34:42.536Z,23.70
2017-08-15T13:37:10.150Z,23.60
2017-08-15T13:39:55.321Z,23.50
2017-08-15T13:42:22.913Z,23.40
2017-08-15T13:44:50.475Z,23.20
2017-08-15T13:47:18.593Z,23.30
2017-08-15T13:49:46.156Z,23.30
2017-08-15T13:52:13.750Z,23.30
2017-08-15T13:54:42.076Z,23.20
2017-08-15T13:57:15.566Z,23.20
2017-08-15T13:59:43.176Z,23.10
2017-08-15T14:02:10.736Z,23.10
2017-08-15T14:04:38.303Z,23.10
2017-08-15T14:07:06.658Z,23.00
2017-08-15T14:09:34.221Z,23.00
2017-08-15T14:12:01.812Z,23.10
2017-08-15T14:14:30.127Z,23.20
2017-08-15T14:16:57.719Z,23.20
2017-08-15T14:19:25.311Z,23.20
2017-08-15T14:21:53.625Z,23.10
2017-08-15T14:24:21.218Z,23.10
2017-08-15T14:26:48.781Z,23.10
2017-08-15T14:29:16.379Z,23.00
2017-08-15T14:31:43.937Z,23.10
2017-08-15T14:34:11.855Z,23.10
2017-08-15T14:36:39.411Z,23.00
2017-08-15T14:39:07.016Z,22.90
2017-08-15T14:41:35.374Z,22.80
2017-08-15T14:44:02.935Z,22.80
2017-08-15T14:46:31.369Z,22.90
2017-08-15T14:48:58.961Z,22.80
2017-08-15T14:51:26.526Z,22.80
2017-08-15T14:53:54.125Z,22.70
2017-08-15T14:56:21.680Z,22.70
2017-08-15T14:58:49.242Z,22.80
2017-08-15T15:01:16.836Z,22.70
2017-08-15T15:03:44.399Z,22.80
2017-08-15T15:06:11.985Z,22.80
2017-08-15T15:08:39.584Z,22.80
2017-08-15T15:11:07.141Z,22.80
2017-08-15T15:13:35.476Z,22.80
2017-08-15T15:16:03.058Z,22.80
2017-08-15T15:18:30.661Z,22.80
2017-08-15T15:21:04.345Z,22.70
2017-08-15T15:23:33.918Z,22.70
2017-08-15T15:26:01.494Z,22.60
2017-08-15T15:28:29.854Z,22.70
2017-08-15T15:30:57.401Z,22.70
2017-08-15T15:33:25.698Z,22.60
2017-08-15T15:35:53.292Z,22.60
2017-08-15T15:38:20.859Z,22.60
2017-08-15T15:40:48.441Z,22.60
2017-08-15T15:43:16.041Z,22.70
2017-08-15T15:45:43.603Z,22.80
2017-08-15T15:48:11.197Z,22.90
2017-08-15T15:50:38.804Z,22.90
2017-08-15T15:53:20.412Z,22.90
2017-08-15T15:55:48.992Z,22.90
2017-08-15T15:58:16.555Z,23.00
2017-08-15T16:00:44.162Z,23.00
2017-08-15T16:03:11.711Z,23.00
2017-08-15T16:05:39.258Z,22.90
2017-08-15T16:08:07.602Z,22.90
2017-08-15T16:10:35.153Z,22.90
2017-08-15T16:13:02.743Z,22.90
2017-08-15T16:15:31.071Z,23.00
2017-08-15T16:17:58.671Z,23.00
2017-08-15T16:20:26.226Z,23.10
2017-08-15T16:22:53.773Z,23.10
2017-08-15T16:25:21.367Z,23.10
2017-08-15T16:27:49.693Z,23.10
2017-08-15T16:30:17.287Z,23.10
2017-08-15T16:32:44.850Z,23.10
2017-08-15T16:35:12.400Z,23.10
2017-08-15T16:37:39.993Z,23.10
2017-08-15T16:40:07.553Z,23.10
2017-08-15T16:42:35.149Z,23.00
2017-08-15T16:45:02.711Z,22.80
2017-08-15T16:47:30.303Z,22.90
2017-08-15T16:49:57.866Z,22.90
2017-08-15T16:52:25.428Z,23.10
2017-08-15T16:54:53.036Z,23.10
2017-08-15T16:57:20.577Z,23.10
2017-08-15T16:59:48.132Z,23.10
2017-08-15T17:02:15.726Z,23.00
2017-08-15T17:04:49.168Z,22.90
2017-08-15T17:07:16.776Z,22.90
2017-08-15T17:09:44.393Z,22.80
2017-08-15T17:12:12.298Z,22.80
2017-08-15T17:14:39.900Z,22.70
2017-08-15T17:17:07.494Z,22.80
2017-08-15T17:19:35.852Z,22.80
2017-08-15T17:22:03.443Z,22.80
2017-08-15T17:24:30.990Z,22.80
2017-08-15T17:26:59.319Z,22.80
2017-08-15T17:29:26.913Z,22.80
2017-08-15T17:31:54.506Z,22.80
2017-08-15T17:34:22.070Z,22.80
2017-08-15T17:39:24.231Z,22.80
2017-08-15T17:41:52.573Z,22.80
2017-08-15T17:44:20.157Z,22.80
2017-08-15T17:46:47.720Z,22.80
2017-08-15T17:49:15.307Z,22.70
2017-08-15T17:51:42.856Z,22.80
2017-08-15T17:54:11.184Z,22.60
2017-08-15T17:56:38.761Z,22.60
2017-08-15T17:59:06.311Z,22.60
2017-08-15T18:01:33.902Z,22.60
2017-08-15T18:04:01.452Z,22.50
2017-08-15T18:06:28.999Z,22.50
2017-08-15T18:08:56.600Z,22.40
2017-08-15T18:11:24.966Z,22.30
2017-08-15T18:13:53.346Z,22.30
2017-08-15T18:16:21.679Z,22.30
2017-08-15T18:18:49.229Z,22.30
2017-08-15T18:21:16.826Z,22.30
2017-08-15T18:23:44.386Z,22.20
2017-08-15T18:26:11.977Z,22.10
2017-08-15T18:28:40.350Z,22.00
2017-08-15T18:31:09.024Z,22.00
2017-08-15T18:33:36.677Z,21.90
2017-08-15T18:36:04.276Z,21.80
2017-08-15T18:38:31.848Z,21.70
2017-08-15T18:40:59.411Z,21.60
2017-08-15T18:43:28.038Z,21.60
2017-08-15T18:45:55.652Z,21.60
2017-08-15T18:48:23.210Z,21.50
2017-08-15T18:50:50.802Z,21.40
2017-08-15T18:53:18.379Z,21.30
2017-08-15T18:55:45.944Z,21.50
2017-08-15T18:58:13.536Z,21.50
2017-08-15T19:00:41.087Z,21.50
2017-08-15T19:03:09.443Z,21.40
2017-08-15T19:05:37.011Z,21.40
2017-08-15T19:08:04.613Z,21.40
2017-08-15T19:10:32.220Z,21.30
2017-08-15T19:12:59.935Z,21.20
2017-08-15T19:15:27.548Z,21.20
2017-08-15T19:17:56.607Z,21.30
2017-08-15T19:20:24.200Z,21.30
2017-08-15T19:22:51.769Z,21.40
2017-08-15T19:25:20.159Z,21.50
2017-08-15T19:27:49.169Z,21.50
2017-08-15T19:30:16.747Z,21.50
2017-08-15T19:32:44.340Z,21.50
2017-08-15T19:35:11.948Z,21.50
2017-08-15T19:37:39.510Z,21.40
2017-08-15T19:40:08.859Z,21.50
2017-08-15T19:42:36.609Z,21.50
2017-08-15T19:45:04.152Z,21.50
2017-08-15T19:47:31.744Z,21.50
2017-08-15T19:50:01.961Z,21.50
2017-08-15T19:52:29.832Z,21.50
2017-08-15T19:54:58.111Z,21.50
2017-08-15T19:57:25.700Z,21.50
2017-08-15T19:59:54.089Z,21.30
2017-08-15T20:02:22.447Z,21.10
2017-08-15T20:04:50.055Z,21.10
2017-08-15T20:07:17.652Z,21.00
2017-08-15T20:09:45.224Z,20.80
2017-08-15T20:12:13.658Z,20.70
2017-08-15T20:14:41.221Z,20.70
2017-08-15T20:17:08.818Z,20.50
2017-08-15T20:19:36.378Z,20.40
2017-08-15T20:22:04.217Z,20.30
2017-08-15T20:24:31.867Z,20.40
2017-08-15T20:26:59.747Z,20.40
2017-08-15T20:29:27.333Z,20.40
2017-08-15T20:31:54.903Z,20.50
2017-08-15T20:34:23.285Z,20.40
2017-08-15T20:36:50.877Z,20.40
2017-08-15T20:39:18.595Z,20.30
2017-08-15T20:41:46.154Z,20.30
2017-08-15T20:44:17.456Z,20.20
2017-08-15T20:46:45.015Z,20.20
2017-08-15T20:49:12.600Z,20.10
2017-08-15T20:51:40.155Z,20.10
2017-08-15T20:54:07.750Z,20.00
2017-08-15T20:56:35.311Z,19.90
2017-08-15T20:59:02.934Z,19.70
2017-08-15T21:01:31.622Z,19.70
2017-08-15T21:03:59.175Z,19.70
2017-08-15T21:06:26.778Z,19.80
2017-08-15T21:08:54.356Z,19.80
2017-08-15T21:11:21.964Z,19.60
2017-08-15T21:13:49.527Z,19.50
2017-08-15T21:16:17.089Z,19.40
2017-08-15T21:18:44.667Z,19.40
2017-08-15T21:21:12.214Z,19.30
2017-08-15T21:23:39.853Z,19.30
2017-08-15T21:26:07.451Z,19.30
2017-08-15T21:28:35.038Z,19.30
2017-08-15T21:31:02.601Z,19.20
2017-08-15T21:33:31.462Z,19.10
2017-08-15T21:35:59.272Z,19.10
2017-08-15T21:38:28.319Z,19.20
2017-08-15T21:40:55.914Z,19.20
2017-08-15T21:43:23.462Z,19.20
2017-08-15T21:45:51.789Z,19.10
2017-08-15T21:48:19.382Z,19.10
2017-08-15T21:50:46.936Z,19.10
2017-08-15T21:53:14.521Z,19.00
2017-08-15T21:55:42.866Z,19.10
2017-08-15T21:58:11.269Z,19.10
2017-08-15T22:00:38.876Z,19.10
2017-08-15T22:03:06.439Z,19.10
2017-08-15T22:05:33.985Z,19.00
2017-08-15T22:08:01.580Z,19.00
2017-08-15T22:10:29.142Z,18.90
2017-08-15T22:12:56.727Z,18.90
2017-08-15T22:15:24.283Z,18.90
2017-08-15T22:17:51.872Z,18.90
2017-08-15T22:20:19.425Z,18.90
2017-08-15T22:22:47.025Z,18.90
2017-08-15T22:25:14.579Z,18.90
2017-08-15T22:27:42.142Z,18.80
2017-08-15T22:30:09.750Z,18.70
2017-08-15T22:32:37.312Z,18.70
2017-08-15T22:35:04.906Z,18.60
2017-08-15T22:37:32.498Z,18.60
2017-08-15T22:40:00.062Z,18.70
2017-08-15T22:42:27.654Z,18.70
2017-08-15T22:44:55.217Z,18.70
2017-08-15T22:47:22.810Z,18.70
2017-08-15T22:49:50.406Z,18.80
2017-08-15T22:52:17.967Z,18.80
2017-08-15T22:54:45.559Z,18.80
2017-08-15T22:57:13.121Z,18.80
2017-08-15T22:59:40.670Z,18.80
2017-08-15T23:02:08.262Z,18.90
2017-08-15T23:04:35.827Z,18.90
2017-08-15T23:07:03.418Z,18.80
2017-08-15T23:09:30.981Z,18.90
2017-08-15T23:11:59.384Z,19.00
2017-08-15T23:14:26.946Z,19.00
2017-08-15T23:16:54.543Z,18.90
2017-08-15T23:19:22.106Z,18.80
2017-08-15T23:21:49.710Z,18.70
2017-08-15T23:24:17.278Z,18.70
2017-08-15T23:26:44.835Z,18.70
2017-08-15T23:29:12.429Z,18.70
2017-08-15T23:31:39.991Z,18.70
2017-08-15T23:34:07.600Z,18.80
2017-08-15T23:36:35.163Z,18.80
2017-08-15T23:39:02.726Z,18.80
2017-08-15T23:41:30.323Z,18.70
2017-08-15T23:43:57.871Z,18.60
2017-08-15T23:46:25.458Z,18.60
2017-08-15T23:48:53.023Z,18.60
2017-08-15T23:51:20.599Z,18.60
2017-08-15T23:53:48.206Z,18.50
2017-08-15T23:56:15.771Z,18.40
2017-08-15T23:58:43.334Z,18.50
